Terminal Aerodrome Forecast
Issued by NWS

Home | Current Version | Previous Version | Text Only | Print | Product List | Glossary On
Versions: 1 2 3 4 5 6 7 8 9 10 11 12 13 14 15 16 17
000
FTUS43 KILX 251400 AAB
TAFCMI
TAF AMD
KCMI 251403Z 2514/2612 27006KT 6SM BR SKC
     FM251500 27006KT 4SM BR BKN004
     FM251700 29005KT 5SM BR SCT015
     FM251900 31010KT P6SM SKC
     FM252300 31005KT P6SM SKC=

USA.gov is the U.S. government's official web portal to all federal, state and local government web resources and services.